sensor_id;sensor_type;location;lat;lon;timestamp;pressure;altitude;pressure_sealevel;temperature;humidity
64610;BME280;51019;46.090;6.350;2022-08-19T00:02:24;96271.00;;;18.32;100.00
64610;BME280;51019;46.090;6.350;2022-08-19T00:04:51;96157.00;;;17.56;100.00
64610;BME280;51019;46.090;6.350;2022-08-19T00:07:19;96254.44;;;18.17;100.00
64610;BME280;51019;46.090;6.350;2022-08-19T00:09:48;96123.66;;;17.40;100.00
64610;BME280;51019;46.090;6.350;2022-08-19T00:12:15;96277.47;;;18.57;100.00
64610;BME280;51019;46.090;6.350;2022-08-19T00:14:42;96233.28;;;18.36;100.00
64610;BME280;51019;46.090;6.350;2022-08-19T00:17:09;96282.97;;;18.56;100.00
64610;BME280;51019;46.090;6.350;2022-08-19T00:19:36;96246.25;;;18.18;100.00
64610;BME280;51019;46.090;6.350;2022-08-19T00:22:04;96281.06;;;18.43;100.00
64610;BME280;51019;46.090;6.350;2022-08-19T00:24:32;96284.34;;;18.38;100.00
64610;BME280;51019;46.090;6.350;2022-08-19T00:27:00;96263.25;;;18.30;100.00
64610;BME280;51019;46.090;6.350;2022-08-19T00:29:28;96220.91;;;18.02;100.00
64610;BME280;51019;46.090;6.350;2022-08-19T00:31:55;96176.34;;;17.57;100.00
64610;BME280;51019;46.090;6.350;2022-08-19T00:34:24;96279.69;;;18.12;100.00
64610;BME280;51019;46.090;6.350;2022-08-19T00:36:54;96273.31;;;18.00;100.00
64610;BME280;51019;46.090;6.350;2022-08-19T00:39:22;96247.25;;;17.76;100.00
64610;BME280;51019;46.090;6.350;2022-08-19T00:41:50;96261.75;;;17.80;100.00
64610;BME280;51019;46.090;6.350;2022-08-19T00:44:21;96271.44;;;17.66;100.00
64610;BME280;51019;46.090;6.350;2022-08-19T00:46:49;96275.91;;;17.66;100.00
64610;BME280;51019;46.090;6.350;2022-08-19T00:49:19;96271.38;;;17.88;100.00
64610;BME280;51019;46.090;6.350;2022-08-19T00:51:51;96230.94;;;17.51;100.00
64610;BME280;51019;46.090;6.350;2022-08-19T00:54:19;96288.69;;;17.84;100.00
64610;BME280;51019;46.090;6.350;2022-08-19T00:56:48;96280.25;;;17.73;100.00
64610;BME280;51019;46.090;6.350;2022-08-19T00:59:16;96145.72;;;16.70;100.00
64610;BME280;51019;46.090;6.350;2022-08-19T01:01:46;96222.34;;;17.21;100.00
64610;BME280;51019;46.090;6.350;2022-08-19T01:04:13;96271.13;;;17.55;100.00
64610;BME280;51019;46.090;6.350;2022-08-19T01:06:41;96223.81;;;17.52;100.00
64610;BME280;51019;46.090;6.350;2022-08-19T01:09:08;96190.94;;;17.18;100.00
64610;BME280;51019;46.090;6.350;2022-08-19T01:11:39;96270.25;;;17.69;100.00
64610;BME280;51019;46.090;6.350;2022-08-19T01:14:08;96253.66;;;17.60;100.00
64610;BME280;51019;46.090;6.350;2022-08-19T01:16:36;96279.84;;;17.70;100.00
64610;BME280;51019;46.090;6.350;2022-08-19T01:19:12;96276.78;;;17.52;100.00
64610;BME280;51019;46.090;6.350;2022-08-19T01:21:47;96211.13;;;17.19;100.00
64610;BME280;51019;46.090;6.350;2022-08-19T01:24:18;96266.25;;;17.58;100.00
64610;BME280;51019;46.090;6.350;2022-08-19T01:26:47;96271.56;;;17.58;100.00
64610;BME280;51019;46.090;6.350;2022-08-19T01:29:15;96279.06;;;17.55;100.00
64610;BME280;51019;46.090;6.350;2022-08-19T01:31:42;96282.34;;;17.78;100.00
64610;BME280;51019;46.090;6.350;2022-08-19T01:34:09;96284.19;;;17.84;100.00
64610;BME280;51019;46.090;6.350;2022-08-19T01:36:40;96285.50;;;17.67;100.00
64610;BME280;51019;46.090;6.350;2022-08-19T01:39:11;96291.53;;;17.61;100.00
64610;BME280;51019;46.090;6.350;2022-08-19T01:41:39;96290.84;;;17.73;100.00
64610;BME280;51019;46.090;6.350;2022-08-19T01:44:08;96257.53;;;17.36;100.00
64610;BME280;51019;46.090;6.350;2022-08-19T01:46:35;96287.88;;;17.62;100.00
64610;BME280;51019;46.090;6.350;2022-08-19T01:49:03;96288.88;;;17.61;100.00
64610;BME280;51019;46.090;6.350;2022-08-19T01:51:30;96279.78;;;17.42;100.00
64610;BME280;51019;46.090;6.350;2022-08-19T01:53:57;96296.97;;;17.53;100.00
64610;BME280;51019;46.090;6.350;2022-08-19T01:56:25;96301.91;;;17.56;100.00
64610;BME280;51019;46.090;6.350;2022-08-19T01:58:56;96295.44;;;17.37;100.00
64610;BME280;51019;46.090;6.350;2022-08-19T02:01:25;96297.63;;;17.33;100.00
64610;BME280;51019;46.090;6.350;2022-08-19T02:03:52;96292.25;;;17.27;100.00
64610;BME280;51019;46.090;6.350;2022-08-19T02:06:20;96306.44;;;17.40;100.00
64610;BME280;51019;46.090;6.350;2022-08-19T02:08:47;96289.69;;;17.33;100.00
64610;BME280;51019;46.090;6.350;2022-08-19T02:11:19;96304.69;;;17.48;100.00
64610;BME280;51019;46.090;6.350;2022-08-19T02:13:46;96313.25;;;17.50;100.00
64610;BME280;51019;46.090;6.350;2022-08-19T02:16:16;96221.19;;;16.81;100.00
64610;BME280;51019;46.090;6.350;2022-08-19T02:18:43;96311.03;;;17.53;100.00
64610;BME280;51019;46.090;6.350;2022-08-19T02:21:11;96210.31;;;16.76;100.00
64610;BME280;51019;46.090;6.350;2022-08-19T02:23:38;96301.84;;;17.28;100.00
64610;BME280;51019;46.090;6.350;2022-08-19T02:26:05;96242.09;;;16.97;100.00
64610;BME280;51019;46.090;6.350;2022-08-19T02:28:32;96339.75;;;17.50;100.00
64610;BME280;51019;46.090;6.350;2022-08-19T02:31:00;96331.75;;;17.43;100.00
64610;BME280;51019;46.090;6.350;2022-08-19T02:33:29;96342.66;;;17.55;100.00
64610;BME280;51019;46.090;6.350;2022-08-19T02:35:56;96297.13;;;17.23;100.00
64610;BME280;51019;46.090;6.350;2022-08-19T02:38:23;96342.91;;;17.38;100.00
64610;BME280;51019;46.090;6.350;2022-08-19T02:40:53;96288.19;;;17.03;100.00
64610;BME280;51019;46.090;6.350;2022-08-19T02:43:22;96343.94;;;17.37;100.00
64610;BME280;51019;46.090;6.350;2022-08-19T02:45:49;96337.47;;;17.04;100.00
64610;BME280;51019;46.090;6.350;2022-08-19T02:48:17;96356.53;;;17.14;100.00
64610;BME280;51019;46.090;6.350;2022-08-19T02:50:48;96351.16;;;17.29;100.00
64610;BME280;51019;46.090;6.350;2022-08-19T02:53:21;96352.59;;;17.10;100.00
64610;BME280;51019;46.090;6.350;2022-08-19T02:55:49;96330.53;;;17.03;100.00
64610;BME280;51019;46.090;6.350;2022-08-19T02:58:16;96368.56;;;17.17;100.00
64610;BME280;51019;46.090;6.350;2022-08-19T03:00:47;96368.03;;;17.06;100.00
64610;BME280;51019;46.090;6.350;2022-08-19T03:03:16;96366.03;;;17.09;100.00
64610;BME280;51019;46.090;6.350;2022-08-19T03:05:44;96369.66;;;17.22;100.00
64610;BME280;51019;46.090;6.350;2022-08-19T03:08:13;96366.47;;;17.12;100.00
64610;BME280;51019;46.090;6.350;2022-08-19T03:10:42;96350.97;;;17.09;100.00
64610;BME280;51019;46.090;6.350;2022-08-19T03:13:13;96293.75;;;16.57;100.00
64610;BME280;51019;46.090;6.350;2022-08-19T03:15:41;96228.78;;;16.04;100.00
64610;BME280;51019;46.090;6.350;2022-08-19T03:18:08;96339.72;;;16.71;100.00
64610;BME280;51019;46.090;6.350;2022-08-19T03:20:40;96374.22;;;16.78;100.00
64610;BME280;51019;46.090;6.350;2022-08-19T03:23:07;96391.44;;;16.88;100.00
64610;BME280;51019;46.090;6.350;2022-08-19T03:25:38;96358.63;;;16.68;100.00
64610;BME280;51019;46.090;6.350;2022-08-19T03:28:08;96307.53;;;16.53;100.00
64610;BME280;51019;46.090;6.350;2022-08-19T03:30:35;96391.56;;;16.80;100.00
64610;BME280;51019;46.090;6.350;2022-08-19T03:33:02;96392.84;;;16.69;100.00
64610;BME280;51019;46.090;6.350;2022-08-19T03:35:29;96385.28;;;16.66;100.00
64610;BME280;51019;46.090;6.350;2022-08-19T03:37:58;96339.56;;;16.58;100.00
64610;BME280;51019;46.090;6.350;2022-08-19T03:40:25;96362.63;;;16.79;100.00
64610;BME280;51019;46.090;6.350;2022-08-19T03:42:54;96358.25;;;16.71;100.00
64610;BME280;51019;46.090;6.350;2022-08-19T03:45:21;96345.56;;;16.52;100.00
64610;BME280;51019;46.090;6.350;2022-08-19T03:47:47;96362.81;;;16.62;100.00
64610;BME280;51019;46.090;6.350;2022-08-19T03:50:15;96353.03;;;16.48;100.00
64610;BME280;51019;46.090;6.350;2022-08-19T03:52:48;96286.59;;;16.22;100.00
64610;BME280;51019;46.090;6.350;2022-08-19T03:55:15;96337.81;;;16.50;100.00
64610;BME280;51019;46.090;6.350;2022-08-19T03:57:43;96386.56;;;17.06;100.00
64610;BME280;51019;46.090;6.350;2022-08-19T04:00:13;96398.97;;;17.06;100.00
64610;BME280;51019;46.090;6.350;2022-08-19T04:02:40;96310.16;;;16.53;100.00
64610;BME280;51019;46.090;6.350;2022-08-19T04:05:07;96379.06;;;16.74;100.00
64610;BME280;51019;46.090;6.350;2022-08-19T04:07:34;96390.75;;;16.80;100.00
64610;BME280;51019;46.090;6.350;2022-08-19T04:10:02;96377.41;;;16.58;100.00
64610;BME280;51019;46.090;6.350;2022-08-19T04:12:29;96394.91;;;16.59;100.00
64610;BME280;51019;46.090;6.350;2022-08-19T04:14:56;96403.88;;;16.73;100.00
64610;BME280;51019;46.090;6.350;2022-08-19T04:17:25;96408.34;;;16.73;100.00
64610;BME280;51019;46.090;6.350;2022-08-19T04:19:52;96409.56;;;16.70;100.00
64610;BME280;51019;46.090;6.350;2022-08-19T04:22:19;96406.34;;;16.75;100.00
64610;BME280;51019;46.090;6.350;2022-08-19T04:24:46;96402.84;;;16.59;100.00
64610;BME280;51019;46.090;6.350;2022-08-19T04:27:13;96419.31;;;16.69;100.00
64610;BME280;51019;46.090;6.350;2022-08-19T04:29:41;96306.97;;;15.84;100.00
64610;BME280;51019;46.090;6.350;2022-08-19T04:32:08;96327.59;;;16.03;100.00
64610;BME280;51019;46.090;6.350;2022-08-19T04:34:37;96423.31;;;16.65;100.00
64610;BME280;51019;46.090;6.350;2022-08-19T04:37:05;96428.16;;;16.77;100.00
64610;BME280;51019;46.090;6.350;2022-08-19T04:39:33;96434.16;;;16.70;100.00
64610;BME280;51019;46.090;6.350;2022-08-19T04:42:17;96411.69;;;16.52;100.00
64610;BME280;51019;46.090;6.350;2022-08-19T04:45:02;96438.38;;;16.65;100.00
64610;BME280;51019;46.090;6.350;2022-08-19T04:47:29;96430.31;;;16.58;100.00
64610;BME280;51019;46.090;6.350;2022-08-19T04:49:59;96440.47;;;16.69;100.00
64610;BME280;51019;46.090;6.350;2022-08-19T04:52:26;96444.84;;;16.62;100.00
64610;BME280;51019;46.090;6.350;2022-08-19T04:54:53;96442.47;;;16.67;100.00
64610;BME280;51019;46.090;6.350;2022-08-19T04:57:21;96420.91;;;16.56;100.00
64610;BME280;51019;46.090;6.350;2022-08-19T04:59:53;96449.41;;;16.68;100.00
64610;BME280;51019;46.090;6.350;2022-08-19T05:02:20;96443.31;;;16.68;100.00
64610;BME280;51019;46.090;6.350;2022-08-19T05:04:50;96446.19;;;16.58;100.00
64610;BME280;51019;46.090;6.350;2022-08-19T05:07:18;96348.78;;;15.80;100.00
64610;BME280;51019;46.090;6.350;2022-08-19T05:09:45;96458.13;;;16.54;100.00
64610;BME280;51019;46.090;6.350;2022-08-19T05:12:12;96455.59;;;16.46;100.00
64610;BME280;51019;46.090;6.350;2022-08-19T05:14:39;96437.13;;;16.38;100.00
64610;BME280;51019;46.090;6.350;2022-08-19T05:17:06;96453.72;;;16.69;100.00
64610;BME280;51019;46.090;6.350;2022-08-19T05:19:33;96473.28;;;16.60;100.00
64610;BME280;51019;46.090;6.350;2022-08-19T05:22:19;96464.25;;;16.55;100.00
64610;BME280;51019;46.090;6.350;2022-08-19T05:25:07;96467.16;;;16.60;100.00
64610;BME280;51019;46.090;6.350;2022-08-19T05:27:34;96455.13;;;16.57;100.00
64610;BME280;51019;46.090;6.350;2022-08-19T05:30:01;96471.63;;;16.59;100.00
64610;BME280;51019;46.090;6.350;2022-08-19T05:32:28;96458.66;;;16.50;100.00
64610;BME280;51019;46.090;6.350;2022-08-19T05:34:55;96474.16;;;16.90;100.00
64610;BME280;51019;46.090;6.350;2022-08-19T05:37:24;96415.34;;;16.36;100.00
64610;BME280;51019;46.090;6.350;2022-08-19T05:39:53;96479.88;;;16.64;100.00
64610;BME280;51019;46.090;6.350;2022-08-19T05:42:21;96448.03;;;16.58;100.00
64610;BME280;51019;46.090;6.350;2022-08-19T05:44:49;96467.84;;;16.62;100.00
64610;BME280;51019;46.090;6.350;2022-08-19T05:47:16;96486.09;;;16.86;100.00
64610;BME280;51019;46.090;6.350;2022-08-19T05:49:44;96502.50;;;16.82;100.00
64610;BME280;51019;46.090;6.350;2022-08-19T05:52:14;96486.91;;;16.72;100.00
64610;BME280;51019;46.090;6.350;2022-08-19T05:54:43;96464.00;;;16.64;100.00
64610;BME280;51019;46.090;6.350;2022-08-19T05:57:13;96501.16;;;17.00;100.00
64610;BME280;51019;46.090;6.350;2022-08-19T05:59:40;96500.97;;;17.02;100.00
64610;BME280;51019;46.090;6.350;2022-08-19T06:02:07;96508.00;;;16.95;100.00
64610;BME280;51019;46.090;6.350;2022-08-19T06:04:34;96494.31;;;16.91;100.00
64610;BME280;51019;46.090;6.350;2022-08-19T06:07:01;96366.34;;;16.11;100.00
64610;BME280;51019;46.090;6.350;2022-08-19T06:09:30;96512.75;;;16.99;100.00
64610;BME280;51019;46.090;6.350;2022-08-19T06:11:59;96477.88;;;16.66;100.00
64610;BME280;51019;46.090;6.350;2022-08-19T06:14:30;96524.53;;;16.97;100.00
64610;BME280;51019;46.090;6.350;2022-08-19T06:16:58;96503.81;;;16.86;100.00
64610;BME280;51019;46.090;6.350;2022-08-19T06:19:28;96532.75;;;17.02;100.00
64610;BME280;51019;46.090;6.350;2022-08-19T06:21:57;96514.50;;;16.92;100.00
64610;BME280;51019;46.090;6.350;2022-08-19T06:24:27;96538.13;;;16.94;100.00
64610;BME280;51019;46.090;6.350;2022-08-19T06:26:56;96547.72;;;16.95;100.00
64610;BME280;51019;46.090;6.350;2022-08-19T06:29:25;96528.34;;;16.94;100.00
64610;BME280;51019;46.090;6.350;2022-08-19T06:31:54;96540.97;;;16.92;100.00
64610;BME280;51019;46.090;6.350;2022-08-19T06:34:22;96562.41;;;16.97;100.00
64610;BME280;51019;46.090;6.350;2022-08-19T06:36:50;96528.41;;;16.72;100.00
64610;BME280;51019;46.090;6.350;2022-08-19T06:39:19;96547.09;;;16.93;100.00
64610;BME280;51019;46.090;6.350;2022-08-19T06:41:49;96538.78;;;16.81;100.00
64610;BME280;51019;46.090;6.350;2022-08-19T06:44:17;96559.94;;;16.96;100.00
64610;BME280;51019;46.090;6.350;2022-08-19T06:46:46;96566.19;;;17.03;100.00
64610;BME280;51019;46.090;6.350;2022-08-19T06:49:14;96556.91;;;16.84;100.00
64610;BME280;51019;46.090;6.350;2022-08-19T06:51:42;96570.97;;;16.85;100.00
64610;BME280;51019;46.090;6.350;2022-08-19T06:54:10;96578.94;;;16.99;100.00
64610;BME280;51019;46.090;6.350;2022-08-19T06:56:37;96578.75;;;16.86;100.00
64610;BME280;51019;46.090;6.350;2022-08-19T06:59:06;96578.66;;;17.09;100.00
64610;BME280;51019;46.090;6.350;2022-08-19T07:01:35;96580.31;;;17.10;100.00
64610;BME280;51019;46.090;6.350;2022-08-19T07:04:05;96557.81;;;16.77;100.00
64610;BME280;51019;46.090;6.350;2022-08-19T07:06:35;96588.03;;;16.82;100.00
64610;BME280;51019;46.090;6.350;2022-08-19T07:09:03;96518.06;;;16.47;100.00
64610;BME280;51019;46.090;6.350;2022-08-19T07:11:30;96579.47;;;16.80;100.00
64610;BME280;51019;46.090;6.350;2022-08-19T07:13:58;96596.94;;;17.04;100.00
64610;BME280;51019;46.090;6.350;2022-08-19T07:16:25;96593.34;;;16.97;100.00
64610;BME280;51019;46.090;6.350;2022-08-19T07:18:53;96606.31;;;17.06;100.00
64610;BME280;51019;46.090;6.350;2022-08-19T07:21:24;96604.97;;;17.11;100.00
64610;BME280;51019;46.090;6.350;2022-08-19T07:23:52;96609.28;;;17.12;100.00
64610;BME280;51019;46.090;6.350;2022-08-19T07:26:20;96608.72;;;17.16;100.00
64610;BME280;51019;46.090;6.350;2022-08-19T07:28:49;96604.16;;;17.10;100.00
64610;BME280;51019;46.090;6.350;2022-08-19T07:31:18;96617.88;;;17.14;100.00
64610;BME280;51019;46.090;6.350;2022-08-19T07:33:47;96539.38;;;16.68;100.00
64610;BME280;51019;46.090;6.350;2022-08-19T07:36:18;96618.13;;;17.19;100.00
64610;BME280;51019;46.090;6.350;2022-08-19T07:38:49;96619.69;;;17.28;100.00
64610;BME280;51019;46.090;6.350;2022-08-19T07:41:20;96553.81;;;16.95;100.00
64610;BME280;51019;46.090;6.350;2022-08-19T07:43:48;96619.97;;;17.48;100.00
64610;BME280;51019;46.090;6.350;2022-08-19T07:46:16;96621.50;;;17.42;100.00
64610;BME280;51019;46.090;6.350;2022-08-19T07:48:47;96487.66;;;16.43;100.00
64610;BME280;51019;46.090;6.350;2022-08-19T07:51:16;96614.22;;;17.44;100.00
64610;BME280;51019;46.090;6.350;2022-08-19T07:53:44;96613.22;;;17.45;100.00
64610;BME280;51019;46.090;6.350;2022-08-19T07:56:13;96631.69;;;17.68;100.00
64610;BME280;51019;46.090;6.350;2022-08-19T07:58:43;96624.63;;;17.60;100.00
64610;BME280;51019;46.090;6.350;2022-08-19T08:01:13;96565.25;;;17.25;100.00
64610;BME280;51019;46.090;6.350;2022-08-19T08:03:41;96619.63;;;17.80;100.00
64610;BME280;51019;46.090;6.350;2022-08-19T08:06:26;96627.06;;;17.62;100.00
64610;BME280;51019;46.090;6.350;2022-08-19T08:09:11;96628.38;;;17.81;100.00
64610;BME280;51019;46.090;6.350;2022-08-19T08:11:47;96589.72;;;17.57;100.00
64610;BME280;51019;46.090;6.350;2022-08-19T08:14:17;96634.34;;;17.83;100.00
64610;BME280;51019;46.090;6.350;2022-08-19T08:16:44;96635.22;;;17.90;100.00
64610;BME280;51019;46.090;6.350;2022-08-19T08:19:12;96572.09;;;17.34;100.00
64610;BME280;51019;46.090;6.350;2022-08-19T08:21:42;96636.28;;;17.95;100.00
64610;BME280;51019;46.090;6.350;2022-08-19T08:24:10;96626.72;;;17.94;100.00
64610;BME280;51019;46.090;6.350;2022-08-19T08:26:38;96636.84;;;18.05;100.00
64610;BME280;51019;46.090;6.350;2022-08-19T08:29:07;96596.41;;;17.82;100.00
64610;BME280;51019;46.090;6.350;2022-08-19T08:31:37;96615.09;;;17.95;100.00
64610;BME280;51019;46.090;6.350;2022-08-19T08:34:04;96626.84;;;18.07;100.00
64610;BME280;51019;46.090;6.350;2022-08-19T08:36:31;96559.56;;;17.58;100.00
64610;BME280;51019;46.090;6.350;2022-08-19T08:38:59;96644.59;;;18.07;100.00
64610;BME280;51019;46.090;6.350;2022-08-19T08:41:29;96649.66;;;17.87;100.00
64610;BME280;51019;46.090;6.350;2022-08-19T08:43:59;96665.63;;;18.08;100.00
64610;BME280;51019;46.090;6.350;2022-08-19T08:46:35;96667.72;;;18.13;100.00
64610;BME280;51019;46.090;6.350;2022-08-19T08:49:16;96662.19;;;18.29;100.00
64610;BME280;51019;46.090;6.350;2022-08-19T08:51:48;96668.06;;;18.25;100.00
64610;BME280;51019;46.090;6.350;2022-08-19T08:54:20;96669.53;;;18.27;100.00
64610;BME280;51019;46.090;6.350;2022-08-19T08:56:51;96596.28;;;17.75;100.00
64610;BME280;51019;46.090;6.350;2022-08-19T08:59:23;96581.19;;;17.91;100.00
64610;BME280;51019;46.090;6.350;2022-08-19T09:01:53;96675.66;;;18.64;100.00
64610;BME280;51019;46.090;6.350;2022-08-19T09:04:20;96674.84;;;18.84;100.00
64610;BME280;51019;46.090;6.350;2022-08-19T09:06:51;96674.91;;;18.91;100.00
64610;BME280;51019;46.090;6.350;2022-08-19T09:09:27;96671.41;;;18.91;99.36
64610;BME280;51019;46.090;6.350;2022-08-19T09:12:03;96667.91;;;18.83;100.00
64610;BME280;51019;46.090;6.350;2022-08-19T09:14:39;96668.00;;;18.75;100.00
64610;BME280;51019;46.090;6.350;2022-08-19T09:17:12;96668.50;;;18.64;100.00
64610;BME280;51019;46.090;6.350;2022-08-19T09:19:49;96590.00;;;18.34;100.00
64610;BME280;51019;46.090;6.350;2022-08-19T09:22:16;96668.09;;;18.82;100.00
64610;BME280;51019;46.090;6.350;2022-08-19T09:24:47;96680.03;;;18.71;100.00
64610;BME280;51019;46.090;6.350;2022-08-19T09:27:14;96668.72;;;18.84;100.00
64610;BME280;51019;46.090;6.350;2022-08-19T09:29:42;96667.88;;;19.05;100.00
64610;BME280;51019;46.090;6.350;2022-08-19T09:32:08;96673.44;;;18.89;100.00
64610;BME280;51019;46.090;6.350;2022-08-19T09:34:37;96655.34;;;18.99;100.00
64610;BME280;51019;46.090;6.350;2022-08-19T09:37:04;96598.53;;;18.93;100.00
64610;BME280;51019;46.090;6.350;2022-08-19T09:39:31;96646.03;;;19.09;100.00
64610;BME280;51019;46.090;6.350;2022-08-19T09:41:58;96666.25;;;19.60;100.00
64610;BME280;51019;46.090;6.350;2022-08-19T09:44:25;96683.47;;;19.64;100.00
64610;BME280;51019;46.090;6.350;2022-08-19T09:46:52;96678.69;;;19.52;100.00
64610;BME280;51019;46.090;6.350;2022-08-19T09:49:19;96690.53;;;19.50;100.00
64610;BME280;51019;46.090;6.350;2022-08-19T09:51:51;96680.94;;;19.28;100.00
64610;BME280;51019;46.090;6.350;2022-08-19T09:54:20;96658.19;;;19.18;100.00
64610;BME280;51019;46.090;6.350;2022-08-19T09:56:47;96682.63;;;19.07;99.58
64610;BME280;51019;46.090;6.350;2022-08-19T09:59:14;96689.41;;;19.44;100.00
64610;BME280;51019;46.090;6.350;2022-08-19T10:01:41;96691.06;;;19.45;100.00
64610;BME280;51019;46.090;6.350;2022-08-19T10:04:08;96697.72;;;19.35;100.00
64610;BME280;51019;46.090;6.350;2022-08-19T10:06:38;96697.31;;;19.10;98.88
64610;BME280;51019;46.090;6.350;2022-08-19T10:09:07;96699.13;;;19.31;100.00
64610;BME280;51019;46.090;6.350;2022-08-19T10:11:39;96704.97;;;19.47;100.00
64610;BME280;51019;46.090;6.350;2022-08-19T10:14:07;96677.03;;;19.51;100.00
64610;BME280;51019;46.090;6.350;2022-08-19T10:16:36;96702.19;;;19.55;100.00
64610;BME280;51019;46.090;6.350;2022-08-19T10:19:04;96671.78;;;19.37;98.55
64610;BME280;51019;46.090;6.350;2022-08-19T10:21:33;96699.41;;;19.64;98.63
64610;BME280;51019;46.090;6.350;2022-08-19T10:24:03;96695.66;;;19.51;100.00
64610;BME280;51019;46.090;6.350;2022-08-19T10:26:34;96648.78;;;19.22;100.00
64610;BME280;51019;46.090;6.350;2022-08-19T10:29:03;96697.28;;;19.52;100.00
64610;BME280;51019;46.090;6.350;2022-08-19T10:31:32;96658.38;;;19.17;96.93
64610;BME280;51019;46.090;6.350;2022-08-19T10:34:00;96637.69;;;19.12;99.79
64610;BME280;51019;46.090;6.350;2022-08-19T10:36:29;96605.97;;;19.04;96.42
64610;BME280;51019;46.090;6.350;2022-08-19T10:38:59;96702.94;;;19.71;99.68
64610;BME280;51019;46.090;6.350;2022-08-19T10:41:28;96650.53;;;19.37;94.64
64610;BME280;51019;46.090;6.350;2022-08-19T10:43:59;96703.38;;;19.74;94.50
64610;BME280;51019;46.090;6.350;2022-08-19T10:46:28;96700.31;;;20.25;94.98
64610;BME280;51019;46.090;6.350;2022-08-19T10:48:58;96655.63;;;19.66;92.18
64610;BME280;51019;46.090;6.350;2022-08-19T10:51:25;96629.22;;;19.30;91.62
64610;BME280;51019;46.090;6.350;2022-08-19T10:54:10;96670.19;;;20.11;93.15
64610;BME280;51019;46.090;6.350;2022-08-19T10:56:37;96701.91;;;20.54;91.45
64610;BME280;51019;46.090;6.350;2022-08-19T10:59:21;96684.09;;;20.13;90.61
64610;BME280;51019;46.090;6.350;2022-08-19T11:01:50;96704.13;;;20.50;91.04
64610;BME280;51019;46.090;6.350;2022-08-19T11:04:18;96605.69;;;20.09;89.37
64610;BME280;51019;46.090;6.350;2022-08-19T11:06:47;96681.66;;;20.79;86.98
64610;BME280;51019;46.090;6.350;2022-08-19T11:09:15;96692.97;;;20.88;84.78
64610;BME280;51019;46.090;6.350;2022-08-19T11:11:43;96615.50;;;20.63;85.41
64610;BME280;51019;46.090;6.350;2022-08-19T11:14:12;96608.34;;;20.96;82.21
64610;BME280;51019;46.090;6.350;2022-08-19T11:16:42;96634.38;;;21.27;83.47
64610;BME280;51019;46.090;6.350;2022-08-19T11:19:10;96657.47;;;21.60;79.75
64610;BME280;51019;46.090;6.350;2022-08-19T11:21:39;96651.59;;;21.25;80.92
64610;BME280;51019;46.090;6.350;2022-08-19T11:24:09;96652.78;;;21.62;83.25
64610;BME280;51019;46.090;6.350;2022-08-19T11:26:38;96706.03;;;22.01;84.51
64610;BME280;51019;46.090;6.350;2022-08-19T11:29:06;96715.09;;;21.67;83.08
64610;BME280;51019;46.090;6.350;2022-08-19T11:31:37;96705.72;;;21.38;84.18
64610;BME280;51019;46.090;6.350;2022-08-19T11:34:11;96615.06;;;20.79;84.04
64610;BME280;51019;46.090;6.350;2022-08-19T11:36:40;96705.72;;;21.25;84.93
64610;BME280;51019;46.090;6.350;2022-08-19T11:39:08;96703.25;;;21.30;84.37
64610;BME280;51019;46.090;6.350;2022-08-19T11:41:36;96695.06;;;21.25;85.37
64610;BME280;51019;46.090;6.350;2022-08-19T11:44:03;96707.56;;;21.38;81.82
64610;BME280;51019;46.090;6.350;2022-08-19T11:46:30;96708.56;;;21.57;80.29
64610;BME280;51019;46.090;6.350;2022-08-19T11:48:58;96702.56;;;21.88;79.60
64610;BME280;51019;46.090;6.350;2022-08-19T11:51:28;96711.78;;;22.05;78.20
64610;BME280;51019;46.090;6.350;2022-08-19T11:53:56;96688.78;;;21.97;78.30
64610;BME280;51019;46.090;6.350;2022-08-19T11:56:24;96705.84;;;22.09;79.63
64610;BME280;51019;46.090;6.350;2022-08-19T11:58:51;96713.03;;;21.89;80.42
64610;BME280;51019;46.090;6.350;2022-08-19T12:01:21;96602.38;;;21.14;76.20
64610;BME280;51019;46.090;6.350;2022-08-19T12:03:50;96710.22;;;21.38;77.02
64610;BME280;51019;46.090;6.350;2022-08-19T12:06:19;96714.91;;;21.69;77.49
64610;BME280;51019;46.090;6.350;2022-08-19T12:08:51;96654.84;;;21.53;76.29
64610;BME280;51019;46.090;6.350;2022-08-19T12:11:19;96701.16;;;21.72;77.21
64610;BME280;51019;46.090;6.350;2022-08-19T12:13:46;96711.19;;;21.83;76.78
64610;BME280;51019;46.090;6.350;2022-08-19T12:16:16;96711.78;;;22.12;72.64
64610;BME280;51019;46.090;6.350;2022-08-19T12:18:43;96711.94;;;23.06;71.25
64610;BME280;51019;46.090;6.350;2022-08-19T12:21:11;96712.22;;;22.91;72.46
64610;BME280;51019;46.090;6.350;2022-08-19T12:23:39;96692.75;;;22.84;69.73
64610;BME280;51019;46.090;6.350;2022-08-19T12:26:09;96706.00;;;22.66;72.00
64610;BME280;51019;46.090;6.350;2022-08-19T12:28:37;96699.56;;;22.73;72.39
64610;BME280;51019;46.090;6.350;2022-08-19T12:31:05;96701.66;;;22.27;72.51
64610;BME280;51019;46.090;6.350;2022-08-19T12:33:33;96702.28;;;22.67;72.89
64610;BME280;51019;46.090;6.350;2022-08-19T12:36:02;96656.59;;;21.99;71.75
64610;BME280;51019;46.090;6.350;2022-08-19T12:38:30;96705.91;;;22.41;73.92
64610;BME280;51019;46.090;6.350;2022-08-19T12:40:57;96603.53;;;21.58;74.17
64610;BME280;51019;46.090;6.350;2022-08-19T12:43:26;96711.94;;;22.17;71.89
64610;BME280;51019;46.090;6.350;2022-08-19T12:45:54;96715.41;;;22.30;74.48
64610;BME280;51019;46.090;6.350;2022-08-19T12:48:21;96619.09;;;21.67;70.83
64610;BME280;51019;46.090;6.350;2022-08-19T12:50:48;96654.66;;;22.13;73.88
64610;BME280;51019;46.090;6.350;2022-08-19T12:53:15;96724.47;;;22.16;72.42
64610;BME280;51019;46.090;6.350;2022-08-19T12:55:43;96670.94;;;22.11;75.23
64610;BME280;51019;46.090;6.350;2022-08-19T12:58:10;96578.38;;;21.41;71.29
64610;BME280;51019;46.090;6.350;2022-08-19T13:00:39;96721.97;;;22.34;71.35
64610;BME280;51019;46.090;6.350;2022-08-19T13:03:06;96706.63;;;22.17;71.85